createdAt,value
2022-10-23T00:01:26.559Z,91.65
2022-10-23T00:06:29.229Z,91.34
2022-10-23T00:11:31.274Z,91.31
2022-10-23T00:16:33.473Z,90.33
2022-10-23T00:21:35.087Z,90.53
2022-10-23T00:26:38.378Z,90.47
2022-10-23T00:31:40.079Z,90.50
2022-10-23T00:36:41.700Z,90.69
2022-10-23T00:41:43.583Z,90.74
2022-10-23T00:46:46.256Z,90.91
2022-10-23T00:51:50.730Z,91.23
2022-10-23T00:56:57.374Z,91.33
2022-10-23T01:02:00.178Z,91.66
2022-10-23T01:07:29.136Z,91.84
2022-10-23T01:12:59.059Z,92.16
2022-10-23T01:18:07.990Z,92.26
2022-10-23T01:23:23.387Z,92.45
2022-10-23T01:28:31.583Z,92.54
2022-10-23T01:33:41.703Z,92.51
2022-10-23T01:38:54.278Z,92.46
2022-10-23T01:44:07.250Z,92.55
2022-10-23T01:49:11.372Z,92.50
2022-10-23T01:54:14.692Z,92.70
2022-10-23T01:59:21.821Z,92.96
2022-10-23T02:04:42.726Z,92.71
2022-10-23T02:09:44.380Z,92.68
2022-10-23T02:14:58.602Z,92.96
2022-10-23T02:20:28.122Z,93.14
2022-10-23T02:25:33.673Z,92.87
2022-10-23T02:30:37.391Z,92.81
2022-10-23T02:35:44.887Z,92.75
2022-10-23T02:40:58.423Z,92.81
2022-10-23T02:46:08.707Z,92.71
2022-10-23T02:51:16.896Z,92.71
2022-10-23T02:56:21.557Z,93.12
2022-10-23T03:01:28.101Z,93.19
2022-10-23T03:06:29.788Z,93.24
2022-10-23T03:11:31.864Z,93.28
2022-10-23T03:16:33.504Z,93.49
2022-10-23T03:21:35.225Z,93.78
2022-10-23T03:26:38.374Z,93.90
2022-10-23T03:31:40.086Z,94.40
2022-10-23T03:36:41.803Z,94.91
2022-10-23T03:41:44.940Z,94.81
2022-10-23T03:46:50.843Z,95.62
2022-10-23T03:51:52.977Z,96.13
2022-10-23T03:56:57.716Z,96.40
2022-10-23T04:02:01.028Z,96.41
2022-10-23T04:07:02.815Z,96.42
2022-10-23T04:12:04.788Z,96.73
2022-10-23T04:17:07.172Z,96.99
2022-10-23T04:22:09.137Z,96.74
2022-10-23T04:27:11.119Z,96.81
2022-10-23T04:32:12.712Z,96.86
2022-10-23T04:37:14.455Z,96.89
2022-10-23T04:42:16.148Z,97.23
2022-10-23T04:47:17.803Z,96.95
2022-10-23T04:52:31.368Z,97.29
2022-10-23T04:57:56.108Z,97.11
2022-10-23T05:02:59.698Z,97.33
2022-10-23T05:08:07.950Z,98.26
2022-10-23T05:13:35.757Z,98.50
2022-10-23T05:18:45.836Z,98.78
2022-10-23T05:23:47.752Z,98.73
2022-10-23T05:28:49.616Z,98.72
2022-10-23T05:33:55.375Z,98.69
2022-10-23T05:38:58.368Z,98.98
2022-10-23T05:44:01.738Z,98.97
2022-10-23T05:49:32.405Z,98.82
2022-10-23T05:55:03.386Z,99.19
2022-10-23T06:00:35.624Z,98.90
2022-10-23T06:05:57.227Z,98.96
2022-10-23T06:11:10.234Z,99.02
2022-10-23T06:16:15.954Z,98.98
2022-10-23T06:21:17.978Z,98.88
2022-10-23T06:26:22.157Z,98.89
2022-10-23T06:31:44.072Z,99.07
2022-10-23T06:36:47.203Z,98.73
2022-10-23T06:42:02.997Z,98.50
2022-10-23T06:47:24.910Z,98.21
2022-10-23T06:52:47.653Z,97.71
2022-10-23T06:57:52.021Z,97.32
2022-10-23T07:02:55.730Z,96.36
2022-10-23T07:08:00.665Z,95.77
2022-10-23T07:13:10.731Z,94.67
2022-10-23T07:18:16.518Z,93.65
2022-10-23T07:23:38.448Z,93.09
2022-10-23T07:28:46.324Z,92.87
2022-10-23T07:33:52.290Z,92.15
2022-10-23T07:38:55.816Z,92.07
2022-10-23T07:43:57.567Z,91.19
2022-10-23T07:48:59.416Z,90.73
2022-10-23T07:54:01.017Z,90.02
2022-10-23T07:59:21.344Z,89.41
2022-10-23T08:04:29.734Z,89.58
2022-10-23T08:09:40.869Z,88.72
2022-10-23T08:14:43.141Z,88.83
2022-10-23T08:19:46.532Z,88.38
2022-10-23T08:24:49.195Z,87.83
2022-10-23T08:29:50.900Z,87.02
2022-10-23T08:34:52.655Z,86.82
2022-10-23T08:39:57.907Z,86.17
2022-10-23T08:45:29.134Z,84.55
2022-10-23T08:50:43.243Z,84.28
2022-10-23T08:55:47.425Z,83.88
2022-10-23T09:00:49.807Z,83.49
2022-10-23T09:06:08.986Z,83.75
2022-10-23T09:11:38.228Z,82.89
2022-10-23T09:16:49.358Z,81.84
2022-10-23T09:21:51.063Z,81.57
2022-10-23T09:26:54.388Z,80.52
2022-10-23T09:31:58.744Z,79.63
2022-10-23T09:37:17.659Z,79.61
2022-10-23T09:42:24.838Z,79.04
2022-10-23T09:47:28.101Z,79.67
2022-10-23T09:52:36.634Z,79.72
2022-10-23T09:57:43.408Z,79.11
2022-10-23T10:02:59.077Z,78.55
2022-10-23T10:08:24.960Z,78.25
2022-10-23T10:13:32.534Z,77.94
2022-10-23T10:18:34.066Z,77.48
2022-10-23T10:24:00.450Z,77.25
2022-10-23T10:29:20.144Z,76.75
2022-10-23T10:34:33.622Z,76.68
2022-10-23T10:39:45.376Z,76.02
2022-10-23T10:45:00.090Z,75.49
2022-10-23T10:50:30.992Z,75.10
2022-10-23T10:55:55.765Z,75.38
2022-10-23T11:01:00.660Z,74.33
2022-10-23T11:06:04.296Z,74.30
2022-10-23T11:11:11.956Z,73.73
2022-10-23T11:16:27.245Z,73.78
2022-10-23T11:21:38.090Z,74.04
2022-10-23T11:27:04.910Z,73.23
2022-10-23T11:32:43.836Z,72.94
2022-10-23T11:37:45.713Z,73.07
2022-10-23T11:42:49.292Z,73.69
2022-10-23T11:48:13.875Z,73.33
2022-10-23T11:53:25.601Z,73.24
2022-10-23T11:58:40.623Z,74.07
2022-10-23T12:03:51.019Z,74.92
2022-10-23T12:08:55.374Z,75.21
2022-10-23T12:13:57.048Z,76.32
2022-10-23T12:19:19.653Z,76.16
2022-10-23T12:24:46.946Z,75.66
2022-10-23T12:30:00.483Z,76.05
2022-10-23T12:35:17.332Z,76.57
2022-10-23T12:40:19.074Z,77.00
2022-10-23T12:45:26.767Z,76.21
2022-10-23T12:50:30.990Z,75.84
2022-10-23T12:55:47.933Z,75.98
2022-10-23T13:00:55.447Z,76.17
2022-10-23T13:05:58.961Z,76.07
2022-10-23T13:11:00.947Z,75.93
2022-10-23T13:16:17.940Z,75.92
2022-10-23T13:21:24.867Z,75.54
2022-10-23T13:26:45.270Z,75.88
2022-10-23T13:31:47.400Z,75.93
2022-10-23T13:37:14.573Z,76.59
2022-10-23T13:42:16.291Z,76.98
2022-10-23T13:47:17.921Z,76.95
2022-10-23T13:52:23.411Z,76.90
2022-10-23T13:57:25.030Z,77.02
2022-10-23T14:02:26.764Z,76.46
2022-10-23T14:07:31.420Z,76.43
2022-10-23T14:12:42.323Z,76.63
2022-10-23T14:17:44.444Z,76.78
2022-10-23T14:22:46.417Z,76.96
2022-10-23T14:27:48.435Z,77.46
2022-10-23T14:32:50.843Z,77.51
2022-10-23T14:37:52.645Z,77.81
2022-10-23T14:42:54.380Z,77.50
2022-10-23T14:47:56.569Z,77.63
2022-10-23T14:52:58.341Z,77.58
2022-10-23T14:57:59.966Z,77.99
2022-10-23T15:03:01.610Z,78.33
2022-10-23T15:08:03.216Z,78.18
2022-10-23T15:13:04.913Z,78.43
2022-10-23T15:18:06.782Z,79.24
2022-10-23T15:23:08.573Z,79.50
2022-10-23T15:28:10.191Z,79.54
2022-10-23T15:33:15.413Z,79.70
2022-10-23T15:38:19.392Z,79.62
2022-10-23T15:43:21.039Z,79.91
2022-10-23T15:48:22.752Z,79.93
2022-10-23T15:53:24.425Z,80.34
2022-10-23T15:58:26.412Z,80.44
2022-10-23T16:03:28.151Z,80.42
2022-10-23T16:08:29.851Z,80.74
2022-10-23T16:13:31.520Z,80.88
2022-10-23T16:18:33.193Z,80.98
2022-10-23T16:23:34.972Z,81.30
2022-10-23T16:28:37.757Z,80.97
2022-10-23T16:33:39.506Z,81.51
2022-10-23T16:38:41.163Z,81.39
2022-10-23T16:43:42.889Z,81.67
2022-10-23T16:49:06.217Z,81.41
2022-10-23T16:54:07.917Z,81.53
2022-10-23T16:59:09.740Z,81.41
2022-10-23T17:04:11.676Z,81.30
2022-10-23T17:09:13.499Z,81.47
2022-10-23T17:14:17.745Z,81.46
2022-10-23T17:24:46.192Z,82.14
2022-10-23T17:29:50.521Z,82.16
2022-10-23T17:34:52.188Z,82.33
2022-10-23T17:39:53.875Z,82.22
2022-10-23T17:44:55.524Z,82.97
2022-10-23T17:49:57.197Z,83.00
2022-10-23T17:54:58.888Z,82.96
2022-10-23T18:00:00.522Z,83.63
2022-10-23T18:05:02.227Z,83.88
2022-10-23T18:10:04.906Z,83.88
2022-10-23T18:15:07.353Z,84.04
2022-10-23T18:20:09.197Z,84.01
2022-10-23T18:25:10.874Z,84.55
2022-10-23T18:30:12.809Z,84.67
2022-10-23T18:35:14.426Z,84.81
2022-10-23T18:40:16.302Z,85.10
2022-10-23T18:45:17.986Z,85.19
2022-10-23T18:50:19.758Z,84.95
2022-10-23T18:55:21.492Z,85.19
2022-10-23T19:00:23.117Z,85.11
2022-10-23T19:05:24.734Z,85.10
2022-10-23T19:10:27.486Z,84.92
2022-10-23T19:15:29.573Z,84.44
2022-10-23T19:20:31.495Z,84.66
2022-10-23T19:25:33.860Z,84.74
2022-10-23T19:30:35.525Z,84.86
2022-10-23T19:35:37.279Z,84.89
2022-10-23T19:40:38.986Z,85.01
2022-10-23T19:45:40.660Z,85.24
2022-10-23T19:50:43.186Z,85.06
2022-10-23T19:55:44.797Z,85.16
2022-10-23T20:00:46.378Z,85.34
2022-10-23T20:05:48.012Z,85.17
2022-10-23T20:10:49.716Z,84.82
2022-10-23T20:15:51.401Z,84.04
2022-10-23T20:20:53.741Z,84.05
2022-10-23T20:25:55.518Z,83.55
2022-10-23T20:30:57.168Z,83.10
2022-10-23T20:35:58.894Z,82.97
2022-10-23T20:41:05.814Z,82.43
2022-10-23T20:46:09.283Z,82.49
2022-10-23T20:51:13.851Z,82.53
2022-10-23T20:56:18.044Z,82.16
2022-10-23T21:01:22.892Z,82.62
2022-10-23T21:06:26.848Z,82.26
2022-10-23T21:11:33.416Z,81.76
2022-10-23T21:16:40.786Z,82.18
2022-10-23T21:21:42.912Z,81.84
2022-10-23T21:26:48.010Z,82.44
2022-10-23T21:31:59.315Z,83.42
2022-10-23T21:37:17.653Z,84.63
2022-10-23T21:42:19.571Z,86.39
2022-10-23T21:47:21.204Z,87.41
2022-10-23T21:52:26.071Z,87.58
2022-10-23T21:57:31.833Z,88.11
2022-10-23T22:02:33.510Z,88.42
2022-10-23T22:07:37.249Z,88.61
2022-10-23T22:12:40.361Z,89.24
2022-10-23T22:17:46.455Z,89.85
2022-10-23T22:22:51.368Z,90.54
2022-10-23T22:27:53.383Z,91.17
2022-10-23T22:32:56.378Z,91.27
2022-10-23T22:38:00.722Z,90.75
2022-10-23T22:43:02.301Z,91.19
2022-10-23T22:48:03.929Z,91.16
2022-10-23T22:53:05.560Z,91.35
2022-10-23T22:58:07.248Z,91.92
2022-10-23T23:03:08.931Z,91.87
2022-10-23T23:08:11.245Z,92.06
2022-10-23T23:13:12.839Z,91.81
2022-10-23T23:18:14.488Z,91.90
2022-10-23T23:23:16.665Z,91.74
2022-10-23T23:28:20.200Z,91.97
2022-10-23T23:33:23.881Z,91.70
2022-10-23T23:38:25.465Z,92.12
2022-10-23T23:43:27.119Z,92.26
2022-10-23T23:48:28.724Z,92.39
2022-10-23T23:53:30.375Z,92.33
2022-10-23T23:58:31.960Z,92.55
